Time;durP1;ratioP1;P1;durP2;ratioP2;P2;SDS_P1;SDS_P2;PMS_P1;PMS_P2;Temp;Humidity;BMP_temperature;BMP_pressure;BME280_temperature;BME280_humidity;BME280_pressure;Samples;Min_cycle;Max_cycle;Signal;HPM_P1;HPM_P2
2021/05/05 00:00:42;;;;;;;4.68;3.17;;;;;;;9.93;30.26;99384.94;4904245;28;97413;-71
2021/05/05 00:03:09;;;;;;;2.92;2.83;;;;;;;9.95;30.21;99384.06;4905183;28;98034;-71
2021/05/05 00:05:37;;;;;;;3.20;2.90;;;;;;;9.95;30.16;99378.75;4906025;28;96851;-70
2021/05/05 00:08:05;;;;;;;3.03;2.80;;;;;;;9.94;30.23;99373.41;4904745;28;96786;-70
2021/05/05 00:10:32;;;;;;;3.67;3.03;;;;;;;9.88;30.25;99378.75;4917713;28;96928;-71
2021/05/05 00:12:59;;;;;;;3.22;3.10;;;;;;;9.88;30.30;99370.78;4905097;28;97172;-71
2021/05/05 00:15:29;;;;;;;3.10;2.90;;;;;;;9.88;30.24;99376.09;4904024;28;97779;-72
2021/05/05 00:17:57;;;;;;;3.08;2.97;;;;;;;9.88;30.19;99368.97;4905563;28;96723;-71
2021/05/05 00:20:24;;;;;;;3.05;2.85;;;;;;;9.90;30.16;99359.25;4904072;28;96529;-71
2021/05/05 00:22:52;;;;;;;3.53;3.25;;;;;;;9.92;30.13;99362.78;4905320;28;96992;-71
2021/05/05 00:25:20;;;;;;;3.42;2.92;;;;;;;9.96;30.11;99358.38;4918976;28;98954;-72
2021/05/05 00:27:48;;;;;;;3.97;2.92;;;;;;;10.01;29.99;99359.28;4918472;28;97551;-72
2021/05/05 00:30:17;;;;;;;2.92;2.83;;;;;;;10.02;30.07;99359.28;4904756;28;96861;-72
2021/05/05 00:32:44;;;;;;;6.20;3.70;;;;;;;9.95;30.30;99353.94;4904311;28;97795;-72
2021/05/05 00:35:13;;;;;;;3.72;3.40;;;;;;;9.94;30.15;99350.41;4905085;28;100722;-72
2021/05/05 00:37:41;;;;;;;3.63;3.00;;;;;;;9.93;30.22;99350.41;4904735;28;97480;-72
2021/05/05 00:40:10;;;;;;;3.53;3.20;;;;;;;9.90;30.38;99353.94;4904956;28;96867;-71
2021/05/05 00:42:38;;;;;;;2.95;2.80;;;;;;;9.80;30.44;99357.47;4906508;28;98055;-71
2021/05/05 00:45:08;;;;;;;3.28;3.05;;;;;;;9.70;30.61;99358.31;4918981;28;99001;-71
2021/05/05 00:47:35;;;;;;;4.13;3.05;;;;;;;9.63;30.61;99355.66;4905734;28;96828;-70
2021/05/05 00:50:06;;;;;;;3.40;2.90;;;;;;;9.61;30.46;99352.13;4905628;28;97187;-71
2021/05/05 00:52:34;;;;;;;2.90;2.70;;;;;;;9.59;30.33;99349.44;4910629;28;98046;-70
2021/05/05 00:55:02;;;;;;;3.15;2.83;;;;;;;9.60;30.40;99356.56;4905123;28;97853;-71
2021/05/05 00:57:30;;;;;;;4.10;3.58;;;;;;;9.58;30.37;99360.97;4902998;28;96886;-71
2021/05/05 00:59:58;;;;;;;3.13;3.03;;;;;;;9.54;30.45;99364.50;4917770;28;96970;-71
2021/05/05 01:02:25;;;;;;;3.15;2.90;;;;;;;9.52;30.40;99368.91;4900998;28;98371;-71
2021/05/05 01:04:53;;;;;;;2.83;2.70;;;;;;;9.50;30.36;99362.69;4901955;28;97905;-71
2021/05/05 01:07:22;;;;;;;2.60;2.60;;;;;;;9.46;30.35;99363.56;4917918;28;96889;-70
2021/05/05 01:09:49;;;;;;;2.72;2.72;;;;;;;9.40;30.36;99366.19;4916962;28;96964;-70
2021/05/05 01:12:17;;;;;;;3.17;3.08;;;;;;;9.40;30.23;99362.66;4915820;28;96930;-71
2021/05/05 01:14:44;;;;;;;2.47;2.40;;;;;;;9.36;30.32;99366.16;4916578;28;97808;-71
2021/05/05 01:17:13;;;;;;;3.22;3.03;;;;;;;9.36;30.38;99375.03;4901052;28;97286;-71
2021/05/05 01:19:41;;;;;;;2.50;2.40;;;;;;;9.37;30.36;99368.81;4901807;28;96926;-71
2021/05/05 01:22:10;;;;;;;2.40;2.40;;;;;;;9.38;30.16;99373.25;4917098;28;98139;-71
2021/05/05 01:24:37;;;;;;;4.00;2.60;;;;;;;9.37;30.58;99375.91;4915622;28;98125;-71
2021/05/05 01:27:06;;;;;;;3.22;2.95;;;;;;;9.45;30.27;99367.09;4902731;28;96894;-71
2021/05/05 01:29:35;;;;;;;2.53;2.42;;;;;;;9.47;30.11;99368.00;4916158;28;96820;-72
2021/05/05 01:32:03;;;;;;;2.60;2.50;;;;;;;9.46;30.11;99374.19;4902458;28;96835;-71
2021/05/05 01:34:31;;;;;;;2.97;2.88;;;;;;;9.45;30.08;99364.44;4918289;28;96844;-71
2021/05/05 01:36:59;;;;;;;2.80;2.45;;;;;;;9.43;30.05;99365.28;4916760;28;96848;-72
2021/05/05 01:39:28;;;;;;;5.75;2.70;;;;;;;9.43;30.15;99358.22;4917073;28;97229;-71
2021/05/05 01:41:55;;;;;;;2.20;2.10;;;;;;;9.40;30.12;99360.88;4902968;28;97655;-72
2021/05/05 01:44:29;;;;;;;2.72;2.67;;;;;;;9.39;30.13;99359.09;4903612;28;98867;-71
2021/05/05 01:47:00;;;;;;;2.25;2.25;;;;;;;9.34;30.10;99366.16;4916324;28;97005;-71
2021/05/05 01:49:28;;;;;;;2.70;2.65;;;;;;;9.31;29.90;99355.53;4916543;28;96820;-71
2021/05/05 01:51:58;;;;;;;2.67;2.47;;;;;;;9.22;30.14;99350.22;4902979;28;97836;-72
2021/05/05 01:54:26;;;;;;;2.92;2.72;;;;;;;9.18;30.14;99356.38;4902439;28;98121;-72
2021/05/05 01:56:54;;;;;;;2.85;2.70;;;;;;;9.20;30.11;99354.63;4902237;28;97520;-71
2021/05/05 01:59:22;;;;;;;2.53;2.53;;;;;;;9.21;30.13;99356.38;4902559;28;97744;-72
2021/05/05 02:01:50;;;;;;;2.40;2.30;;;;;;;9.18;30.07;99354.63;4906426;28;97658;-71
2021/05/05 02:04:19;;;;;;;3.13;2.80;;;;;;;9.13;30.36;99348.38;4915441;28;99312;-71
2021/05/05 02:06:56;;;;;;;2.70;2.50;;;;;;;9.07;30.42;99344.84;4916887;28;97105;-71
2021/05/05 02:09:31;;;;;;;2.75;2.55;;;;;;;9.14;30.36;99357.25;4921038;28;97110;-71
2021/05/05 02:11:59;;;;;;;2.33;2.33;;;;;;;9.13;30.28;99351.03;4906393;28;99210;-72
2021/05/05 02:14:29;;;;;;;3.42;2.65;;;;;;;9.11;30.28;99351.94;4917257;28;98980;-72
2021/05/05 02:16:57;;;;;;;3.30;2.50;;;;;;;9.14;30.12;99349.28;4905071;28;96910;-72
2021/05/05 02:19:25;;;;;;;2.75;2.55;;;;;;;9.07;30.11;99340.41;4905521;28;96915;-71
2021/05/05 02:21:53;;;;;;;2.50;2.40;;;;;;;9.07;30.16;99348.38;4919474;28;97056;-72
2021/05/05 02:24:21;;;;;;;2.57;2.47;;;;;;;8.99;30.32;99349.19;4918953;28;99224;-71
2021/05/05 02:26:49;;;;;;;2.65;2.53;;;;;;;9.00;30.04;99351.00;4920763;28;96904;-71
2021/05/05 02:29:17;;;;;;;2.72;2.30;;;;;;;9.05;30.23;99346.59;4904108;28;97051;-71
2021/05/05 02:31:52;;;;;;;2.95;2.70;;;;;;;9.00;30.03;99348.34;4902348;28;99815;-71
2021/05/05 02:34:20;;;;;;;2.60;2.40;;;;;;;8.98;30.05;99340.38;4904775;28;96879;-71
2021/05/05 02:36:48;;;;;;;4.03;2.10;;;;;;;9.04;29.78;99337.72;4921489;28;96819;-71
2021/05/05 02:39:19;;;;;;;2.80;2.60;;;;;;;9.00;29.80;99332.41;4905021;28;97107;-71
2021/05/05 02:41:47;;;;;;;2.50;2.30;;;;;;;9.03;30.15;99340.38;4904343;28;97834;-71
2021/05/05 02:44:16;;;;;;;2.10;2.10;;;;;;;9.02;29.86;99328.00;4919297;28;96958;-71
2021/05/05 02:46:45;;;;;;;2.35;2.35;;;;;;;9.01;29.71;99332.44;4920987;28;96721;-71
2021/05/05 02:49:15;;;;;;;2.40;2.33;;;;;;;9.01;29.72;99332.44;4919467;28;96857;-72
2021/05/05 02:51:43;;;;;;;2.45;2.35;;;;;;;9.01;29.72;99326.22;4919685;28;99816;-71
2021/05/05 02:54:10;;;;;;;2.45;2.38;;;;;;;9.03;29.77;99325.38;4905935;28;97505;-71
2021/05/05 02:56:38;;;;;;;2.80;2.60;;;;;;;8.99;29.48;99328.88;4920683;28;96898;-73
2021/05/05 02:59:05;;;;;;;2.92;2.80;;;;;;;8.93;29.70;99325.31;4918510;28;96997;-71
2021/05/05 03:01:34;;;;;;;3.58;2.70;;;;;;;8.93;29.63;99312.91;4919489;28;97866;-71
2021/05/05 03:04:02;;;;;;;2.45;2.35;;;;;;;8.93;29.72;99320.88;4906126;28;97920;-75
2021/05/05 03:06:30;;;;;;;2.35;2.22;;;;;;;8.88;29.65;99317.31;4921373;28;96818;-71
2021/05/05 03:08:57;;;;;;;2.20;2.20;;;;;;;8.90;29.63;99319.97;4912971;28;97098;-72
2021/05/05 03:11:25;;;;;;;3.20;2.78;;;;;;;8.91;29.71;99322.66;4906945;28;96841;-72
2021/05/05 03:13:53;;;;;;;2.53;2.42;;;;;;;8.89;29.81;99326.19;4905164;28;98145;-72
2021/05/05 03:16:20;;;;;;;2.58;2.47;;;;;;;8.90;29.53;99326.19;4905939;28;96774;-72
2021/05/05 03:18:51;;;;;;;2.70;2.50;;;;;;;8.94;29.60;99327.09;4906257;28;96780;-71
2021/05/05 03:21:19;;;;;;;2.25;2.13;;;;;;;8.92;29.56;99318.22;4905689;28;96763;-72
2021/05/05 03:23:46;;;;;;;3.92;2.40;;;;;;;8.91;29.48;99327.09;4905646;28;98136;-72
2021/05/05 03:26:13;;;;;;;3.83;2.83;;;;;;;8.93;29.42;99325.31;4905869;28;96776;-72
2021/05/05 03:28:41;;;;;;;3.20;2.97;;;;;;;8.98;29.49;99326.22;4904734;28;97030;-71
2021/05/05 03:31:08;;;;;;;2.63;2.53;;;;;;;9.00;29.46;99327.13;4905949;28;96881;-71
2021/05/05 03:33:35;;;;;;;2.30;2.22;;;;;;;9.04;29.43;99334.22;4919765;28;97749;-72
2021/05/05 03:36:05;;;;;;;2.65;2.40;;;;;;;9.05;29.34;99326.25;4906968;28;96797;-71
2021/05/05 03:38:33;;;;;;;2.45;2.38;;;;;;;9.09;29.31;99321.84;4905586;28;96882;-72
2021/05/05 03:41:00;;;;;;;2.80;2.60;;;;;;;9.12;29.28;99321.84;4920941;28;98805;-72
2021/05/05 03:43:28;;;;;;;2.42;2.42;;;;;;;9.19;29.18;99313.03;4904493;28;96805;-72
2021/05/05 03:45:56;;;;;;;2.70;2.60;;;;;;;9.22;29.19;99321.88;4904610;28;96836;-72
2021/05/05 03:48:24;;;;;;;2.60;2.50;;;;;;;9.22;29.12;99318.38;4906454;28;96938;-72
2021/05/05 03:50:52;;;;;;;3.30;3.05;;;;;;;9.23;29.26;99320.13;4920511;28;97024;-72
2021/05/05 03:53:21;;;;;;;2.30;2.30;;;;;;;9.22;29.25;99318.38;4919024;28;98052;-73
2021/05/05 03:55:48;;;;;;;2.55;2.47;;;;;;;9.18;29.08;99311.25;4905806;28;96772;-72
2021/05/05 03:58:16;;;;;;;2.90;2.65;;;;;;;9.15;29.21;99311.25;4920083;28;97021;-72
2021/05/05 04:00:43;;;;;;;2.33;2.33;;;;;;;9.15;29.24;99327.19;4918603;28;96877;-72
2021/05/05 04:03:11;;;;;;;3.30;3.10;;;;;;;9.16;29.15;99315.69;4904477;28;96897;-72
2021/05/05 04:05:38;;;;;;;2.78;2.78;;;;;;;9.18;29.22;99321.88;4903798;28;96841;-72
2021/05/05 04:08:06;;;;;;;3.03;2.92;;;;;;;9.12;29.47;99328.06;4903674;28;97342;-72
2021/05/05 04:10:35;;;;;;;3.08;2.97;;;;;;;9.16;29.31;99315.69;4904018;28;99048;-72
2021/05/05 04:13:02;;;;;;;3.28;2.97;;;;;;;9.21;29.21;99321.88;4905970;28;96901;-72
2021/05/05 04:15:48;;;;;;;2.63;2.60;;;;;;;9.23;29.25;99321.00;4906270;28;97351;-72
2021/05/05 04:18:34;;;;;;;3.30;2.85;;;;;;;9.26;29.05;99313.94;4905376;28;97134;-72
2021/05/05 04:21:19;;;;;;;6.32;5.60;;;;;;;9.27;29.12;99318.34;4904526;28;96714;-72
2021/05/05 04:24:06;;;;;;;4.05;3.75;;;;;;;9.32;29.09;99322.81;4919195;28;97843;-72
2021/05/05 04:26:35;;;;;;;2.67;2.50;;;;;;;9.33;29.19;99327.25;4903076;28;96914;-71
2021/05/05 04:29:03;;;;;;;2.65;2.60;;;;;;;9.36;29.16;99324.59;4900697;28;97398;-73
2021/05/05 04:31:31;;;;;;;3.05;2.88;;;;;;;9.38;29.24;99325.47;4903731;28;97235;-72
2021/05/05 04:33:58;;;;;;;3.42;2.55;;;;;;;9.33;29.19;99321.94;4904907;28;97579;-73
2021/05/05 04:36:26;;;;;;;3.05;2.85;;;;;;;9.36;29.35;99327.25;4904659;28;96899;-73
2021/05/05 04:38:53;;;;;;;3.53;3.27;;;;;;;9.32;29.75;99330.75;4903275;28;97006;-72
2021/05/05 04:41:21;;;;;;;3.78;3.05;;;;;;;9.43;29.43;99326.38;4903313;28;97978;-72
2021/05/05 04:43:49;;;;;;;3.05;2.95;;;;;;;9.39;29.55;99334.34;4904981;28;96879;-72
2021/05/05 04:46:16;;;;;;;2.95;2.80;;;;;;;9.32;29.71;99336.06;4903310;28;96866;-73
2021/05/05 04:48:44;;;;;;;3.60;3.33;;;;;;;9.32;29.61;99338.72;4918074;28;96823;-72
2021/05/05 04:51:11;;;;;;;3.33;3.13;;;;;;;9.31;29.71;99334.31;4909456;28;98431;-73
2021/05/05 04:53:38;;;;;;;4.68;3.95;;;;;;;9.31;29.65;99344.94;4911751;28;98062;-73
2021/05/05 04:56:06;;;;;;;3.72;3.42;;;;;;;9.33;29.68;99339.63;4923978;28;98195;-73
2021/05/05 04:58:33;;;;;;;3.13;2.95;;;;;;;9.36;29.62;99342.28;4910685;28;97364;-72
2021/05/05 05:01:01;;;;;;;3.67;3.40;;;;;;;9.36;29.71;99348.47;4913943;28;97639;-72
2021/05/05 05:03:29;;;;;;;3.63;3.38;;;;;;;9.34;29.56;99350.25;4923820;28;99195;-72
2021/05/05 05:05:56;;;;;;;4.07;3.38;;;;;;;9.36;29.56;99345.81;4921650;28;97785;-72
2021/05/05 05:08:23;;;;;;;3.38;3.28;;;;;;;9.37;29.77;99344.94;4902687;28;97072;-73
2021/05/05 05:10:51;;;;;;;8.20;3.95;;;;;;;9.38;29.72;99351.13;4900295;28;98099;-72
2021/05/05 05:13:18;;;;;;;4.53;4.13;;;;;;;9.36;29.77;99359.09;4904560;28;98019;-73
2021/05/05 05:15:46;;;;;;;3.80;3.53;;;;;;;9.37;29.78;99352.88;4899858;28;97126;-73
2021/05/05 05:18:14;;;;;;;4.70;3.90;;;;;;;9.44;29.73;99354.72;4903046;28;97003;-72
2021/05/05 05:20:42;;;;;;;5.63;3.78;;;;;;;9.49;29.62;99344.13;4916360;28;97242;-73
2021/05/05 05:23:09;;;;;;;4.28;3.88;;;;;;;9.53;29.55;99345.91;4902553;28;96828;-72
2021/05/05 05:25:37;;;;;;;4.40;4.03;;;;;;;9.56;29.35;99352.09;4902968;28;97563;-73
2021/05/05 05:28:04;;;;;;;4.43;4.22;;;;;;;9.61;29.63;99350.34;4903972;28;97261;-73
2021/05/05 05:30:32;;;;;;;4.95;4.45;;;;;;;9.63;29.54;99353.88;4903891;28;97995;-72
2021/05/05 05:32:59;;;;;;;5.47;4.95;;;;;;;9.67;29.51;99349.47;4901998;28;97420;-72
2021/05/05 05:35:28;;;;;;;4.55;4.10;;;;;;;9.75;29.46;99350.38;4901696;28;96818;-72
2021/05/05 05:37:55;;;;;;;8.27;4.97;;;;;;;9.79;29.58;99361.00;4904882;28;97356;-73
2021/05/05 05:40:23;;;;;;;4.85;4.38;;;;;;;9.82;29.46;99358.38;4906165;28;98209;-72
2021/05/05 05:42:50;;;;;;;4.70;4.03;;;;;;;9.83;29.59;99357.47;4907893;28;97350;-73
2021/05/05 05:45:18;;;;;;;4.63;4.30;;;;;;;9.85;29.62;99376.06;4906402;28;96833;-72
2021/05/05 05:47:46;;;;;;;6.72;5.68;;;;;;;9.84;29.38;99376.97;4907665;28;96806;-72
2021/05/05 05:50:14;;;;;;;5.28;4.15;;;;;;;9.79;29.69;99362.78;4904676;28;98767;-73
2021/05/05 05:52:43;;;;;;;4.80;4.50;;;;;;;9.77;29.53;99362.75;4906489;28;96772;-73
2021/05/05 05:55:14;;;;;;;4.57;4.18;;;;;;;9.78;29.33;99371.63;4904368;28;96808;-73
2021/05/05 05:57:42;;;;;;;4.97;4.57;;;;;;;9.78;29.68;99380.50;4918346;28;98004;-72
2021/05/05 06:00:12;;;;;;;5.13;4.72;;;;;;;9.75;29.81;99399.09;4899962;28;97818;-72
2021/05/05 06:02:42;;;;;;;5.72;4.43;;;;;;;9.59;30.29;99389.28;4903148;28;98041;-73
2021/05/05 06:05:11;;;;;;;4.95;4.50;;;;;;;9.54;30.11;99412.28;4905732;28;97173;-71
2021/05/05 06:07:39;;;;;;;8.50;4.65;;;;;;;9.35;30.34;99393.59;4905765;28;96853;-72
2021/05/05 06:10:09;;;;;;;5.28;3.78;;;;;;;9.22;30.43;99411.25;4905036;28;98028;-72
2021/05/05 06:12:36;;;;;;;4.47;4.07;;;;;;;9.15;30.37;99401.50;4906512;28;96783;-72
2021/05/05 06:15:05;;;;;;;4.25;3.88;;;;;;;9.10;30.49;99397.91;4906745;28;96933;-74
2021/05/05 06:17:33;;;;;;;4.25;3.95;;;;;;;9.16;30.48;99404.16;4907217;28;96954;-72
2021/05/05 06:20:02;;;;;;;4.70;4.30;;;;;;;9.19;30.41;99389.97;4921150;28;98391;-72
2021/05/05 06:22:30;;;;;;;5.10;4.60;;;;;;;9.24;30.22;99402.41;4898253;28;97137;-72
2021/05/05 06:24:57;;;;;;;5.40;4.90;;;;;;;9.19;30.30;99413.88;4900604;28;96874;-72
2021/05/05 06:27:25;;;;;;;5.68;5.22;;;;;;;9.11;30.42;99405.91;4907903;28;97437;-73
2021/05/05 06:29:53;;;;;;;5.30;4.82;;;;;;;9.13;30.40;99411.22;4905059;28;97108;-72
2021/05/05 06:32:20;;;;;;;5.10;4.70;;;;;;;9.15;30.46;99409.44;4906411;28;97874;-74
2021/05/05 06:34:49;;;;;;;5.68;4.70;;;;;;;9.20;30.44;99403.28;4906978;28;96852;-73
2021/05/05 06:37:16;;;;;;;5.53;5.13;;;;;;;9.27;30.44;99400.63;4906741;28;96941;-73
2021/05/05 06:39:44;;;;;;;4.78;4.45;;;;;;;9.31;30.45;99413.94;4906342;28;98860;-72
2021/05/05 06:42:12;;;;;;;5.28;4.97;;;;;;;9.33;30.51;99412.19;4905993;28;97845;-73
2021/05/05 06:44:41;;;;;;;5.75;4.53;;;;;;;9.28;30.56;99421.88;4916260;28;96951;-73
2021/05/05 06:47:10;;;;;;;4.15;3.95;;;;;;;9.20;30.60;99432.47;4904895;28;97401;-73
2021/05/05 06:49:37;;;;;;;3.88;3.67;;;;;;;9.15;30.46;99397.03;4918459;28;98407;-74
2021/05/05 06:52:07;;;;;;;3.65;3.45;;;;;;;9.11;30.49;99443.03;4906348;28;98922;-72
2021/05/05 06:54:34;;;;;;;3.83;3.60;;;;;;;9.12;30.47;99463.38;4921375;28;96860;-72
2021/05/05 06:57:02;;;;;;;4.30;3.85;;;;;;;9.07;30.58;99456.28;4907352;28;96791;-73
2021/05/05 06:59:30;;;;;;;3.92;3.72;;;;;;;9.11;30.41;99413.84;4906250;28;97529;-73
2021/05/05 07:01:58;;;;;;;3.80;3.67;;;;;;;9.20;30.33;99418.31;4921177;28;96779;-73
2021/05/05 07:04:26;;;;;;;3.90;3.70;;;;;;;9.24;30.10;99410.34;4905793;28;96842;-73
2021/05/05 07:06:55;;;;;;;4.10;3.90;;;;;;;9.19;30.42;99425.38;4913912;28;97098;-73
2021/05/05 07:09:33;;;;;;;4.15;3.88;;;;;;;9.22;30.37;99433.34;4905934;28;96849;-73
2021/05/05 07:12:02;;;;;;;4.35;4.15;;;;;;;9.32;30.21;99434.28;4905699;28;98245;-73
2021/05/05 07:14:29;;;;;;;3.90;3.70;;;;;;;9.38;30.18;99410.44;4911615;28;97407;-73
2021/05/05 07:16:56;;;;;;;4.43;4.13;;;;;;;9.56;29.96;99415.84;4906211;28;96744;-73
2021/05/05 07:19:25;;;;;;;4.13;3.92;;;;;;;9.67;29.63;99430.03;4920241;28;96981;-73
2021/05/05 07:21:52;;;;;;;4.15;3.92;;;;;;;9.75;29.76;99424.75;4906905;28;97924;-73
2021/05/05 07:24:20;;;;;;;4.28;3.97;;;;;;;9.73;29.63;99432.72;4906077;28;96944;-73
2021/05/05 07:26:48;;;;;;;3.67;3.47;;;;;;;9.74;29.56;99438.91;4905873;28;97421;-73
2021/05/05 07:29:15;;;;;;;4.28;4.05;;;;;;;9.66;29.70;99443.31;4904369;28;97936;-73
2021/05/05 07:31:42;;;;;;;4.50;4.10;;;;;;;9.67;29.77;99440.66;4904269;28;98005;-73
2021/05/05 07:34:11;;;;;;;4.57;4.28;;;;;;;9.62;29.75;99446.84;4906035;28;96787;-73
2021/05/05 07:36:43;;;;;;;4.50;4.20;;;;;;;9.67;29.74;99424.72;4896387;28;97152;-73
2021/05/05 07:39:30;;;;;;;4.28;4.07;;;;;;;9.69;29.71;99428.28;4901769;28;97770;-73
2021/05/05 07:47:40;;;;;;;5.13;4.60;;;;;;;9.70;29.69;99429.19;4904567;28;96767;-72
2021/05/05 07:50:11;;;;;;;4.65;4.32;;;;;;;9.73;29.56;99431.84;4904495;28;96918;-73
2021/05/05 07:52:40;;;;;;;4.47;4.10;;;;;;;9.75;29.62;99425.66;4920122;28;97075;-73
2021/05/05 07:55:09;;;;;;;4.57;4.38;;;;;;;9.80;29.68;99421.22;4905563;28;96866;-73
2021/05/05 07:57:36;;;;;;;4.90;4.45;;;;;;;9.79;29.71;99430.06;4905549;28;97871;-72
2021/05/05 08:00:05;;;;;;;4.60;4.20;;;;;;;9.83;29.64;99431.84;4903695;28;96867;-73
2021/05/05 08:02:39;;;;;;;4.32;4.03;;;;;;;9.82;29.63;99430.09;4906161;28;97871;-72
2021/05/05 08:05:10;;;;;;;4.03;3.83;;;;;;;9.91;29.64;99430.13;4904198;28;96742;-72
2021/05/05 08:07:39;;;;;;;4.05;3.85;;;;;;;9.97;29.46;99421.28;4906056;28;96746;-74
2021/05/05 08:10:06;;;;;;;4.40;4.20;;;;;;;10.01;29.49;99431.03;4904608;28;97100;-74
2021/05/05 08:12:34;;;;;;;4.20;4.03;;;;;;;10.07;29.30;99442.53;4920145;28;97457;-72
2021/05/05 08:15:02;;;;;;;4.70;4.40;;;;;;;10.13;29.16;99442.56;4918222;28;97271;-73
2021/05/05 08:17:29;;;;;;;4.57;4.22;;;;;;;10.21;29.09;99461.16;4897989;28;96880;-72
2021/05/05 08:19:58;;;;;;;4.15;3.95;;;;;;;10.24;29.10;99447.88;4904392;28;97534;-72
2021/05/05 08:22:25;;;;;;;4.18;3.97;;;;;;;10.25;29.20;99451.44;4904310;28;97430;-72
2021/05/05 08:24:53;;;;;;;3.95;3.65;;;;;;;10.32;29.21;99445.25;4905981;28;97530;-72
2021/05/05 08:27:22;;;;;;;3.50;3.40;;;;;;;10.42;28.96;99439.94;4904921;28;97063;-73
2021/05/05 08:29:49;;;;;;;3.65;3.45;;;;;;;10.49;29.03;99452.34;4903338;28;97688;-72
2021/05/05 08:32:17;;;;;;;3.30;3.20;;;;;;;10.52;28.90;99443.50;4904352;28;97821;-72
2021/05/05 08:34:45;;;;;;;3.70;3.40;;;;;;;10.57;28.75;99442.63;4905697;28;96866;-73
2021/05/05 08:37:13;;;;;;;3.47;3.33;;;;;;;10.54;28.86;99466.53;4906065;28;96831;-72
2021/05/05 08:39:41;;;;;;;3.35;3.17;;;;;;;10.46;28.77;99473.66;4906206;28;100496;-72
2021/05/05 08:42:09;;;;;;;3.22;3.03;;;;;;;10.30;29.07;99454.97;4907239;28;97709;-72
2021/05/05 08:44:36;;;;;;;3.83;3.40;;;;;;;10.21;29.14;99472.69;4908629;28;96699;-73
2021/05/05 08:47:04;;;;;;;3.00;2.90;;;;;;;10.16;29.28;99490.41;4907515;28;96878;-74
2021/05/05 08:49:32;;;;;;;3.72;3.53;;;;;;;10.16;29.06;99490.41;4906523;28;97036;-73
2021/05/05 08:52:00;;;;;;;2.90;2.83;;;;;;;10.23;29.15;99482.44;4907058;28;99146;-72
2021/05/05 08:54:28;;;;;;;3.30;3.10;;;;;;;10.28;29.09;99496.63;4906529;28;96635;-74
2021/05/05 08:56:55;;;;;;;3.15;3.05;;;;;;;10.26;28.99;99485.09;4919416;28;97027;-72
2021/05/05 08:59:25;;;;;;;3.10;2.90;;;;;;;10.19;29.02;99478.91;4903961;28;97883;-72
2021/05/05 09:01:52;;;;;;;2.55;2.55;;;;;;;10.13;29.19;99498.38;4905937;28;96890;-72
2021/05/05 09:04:20;;;;;;;2.40;2.40;;;;;;;10.11;29.17;99497.47;4904738;28;97285;-72
2021/05/05 09:06:51;;;;;;;3.22;3.03;;;;;;;10.04;29.42;99501.00;4919522;28;96973;-73
2021/05/05 09:09:39;;;;;;;2.50;2.50;;;;;;;10.10;29.19;99526.72;4905321;28;97103;-72
2021/05/05 09:12:15;;;;;;;2.72;2.63;;;;;;;10.20;29.23;99492.19;4912272;28;99262;-72
2021/05/05 09:14:56;;;;;;;2.88;2.78;;;;;;;10.37;29.19;99488.66;4922340;28;96862;-73
2021/05/05 09:17:26;;;;;;;3.05;2.95;;;;;;;10.48;28.89;99497.56;4908758;28;96815;-72
2021/05/05 09:20:15;;;;;;;2.40;2.40;;;;;;;10.49;28.85;99496.69;4906734;28;97424;-73
2021/05/05 09:22:43;;;;;;;2.10;2.10;;;;;;;10.46;28.75;99499.34;4907323;28;96694;-74
2021/05/05 09:25:12;;;;;;;3.28;2.00;;;;;;;10.41;28.91;99522.34;4908226;28;96758;-72
2021/05/05 09:27:41;;;;;;;3.92;2.05;;;;;;;10.38;28.73;99559.56;4908469;28;97553;-72
2021/05/05 09:30:20;;;;;;;2.15;2.08;;;;;;;10.28;28.83;99521.44;4906502;28;100174;-72
2021/05/05 09:32:49;;;;;;;2.45;2.25;;;;;;;10.19;28.92;99529.41;4907707;28;96726;-73
2021/05/05 09:35:17;;;;;;;2.40;2.30;;;;;;;10.20;29.09;99513.44;4914665;28;96734;-73
2021/05/05 09:37:56;;;;;;;4.03;3.72;;;;;;;10.30;29.15;99510.81;4907941;28;96904;-72
2021/05/05 09:40:24;;;;;;;4.32;2.90;;;;;;;10.39;29.05;99497.53;4907397;28;97270;-73
2021/05/05 09:42:52;;;;;;;2.33;2.22;;;;;;;10.46;28.89;99494.03;4922874;28;97885;-73
2021/05/05 09:45:22;;;;;;;3.15;2.80;;;;;;;10.50;28.91;99517.09;4906766;28;97831;-73
2021/05/05 09:47:54;;;;;;;3.83;3.63;;;;;;;10.49;28.74;99489.59;4907870;28;96732;-74
2021/05/05 09:50:30;;;;;;;2.10;2.10;;;;;;;10.64;28.84;99484.28;4907688;28;97861;-73
2021/05/05 09:53:14;;;;;;;3.97;2.42;;;;;;;10.81;28.19;99484.28;4922842;28;98156;-72
2021/05/05 09:55:42;;;;;;;2.40;2.30;;;;;;;10.79;28.43;99475.41;4907670;28;96880;-73
2021/05/05 09:58:24;;;;;;;2.92;2.22;;;;;;;10.86;28.13;99475.41;4908104;28;96944;-72
2021/05/05 10:01:12;;;;;;;2.55;2.45;;;;;;;10.91;27.18;99499.34;4907573;28;98081;-73
2021/05/05 10:03:42;;;;;;;2.70;2.53;;;;;;;10.92;27.62;99501.13;4909509;28;96633;-72
2021/05/05 10:06:17;;;;;;;5.10;2.72;;;;;;;10.99;27.81;99481.59;4923049;28;96826;-72
2021/05/05 10:08:44;;;;;;;4.93;3.83;;;;;;;11.01;28.06;99511.78;4908166;28;96954;-73
2021/05/05 10:11:12;;;;;;;2.65;2.42;;;;;;;11.01;28.17;99525.94;4908766;28;100257;-73
2021/05/05 10:13:39;;;;;;;3.83;2.60;;;;;;;11.01;27.95;99501.13;4907361;28;97016;-74
2021/05/05 10:16:07;;;;;;;2.85;2.70;;;;;;;11.08;27.99;99500.22;4913696;28;96812;-73
2021/05/05 10:18:35;;;;;;;3.20;2.90;;;;;;;11.21;27.85;99496.66;4907188;28;96736;-73
2021/05/05 10:21:04;;;;;;;5.40;2.63;;;;;;;11.34;27.71;99498.44;4906613;28;96944;-74
2021/05/05 10:23:32;;;;;;;5.25;2.60;;;;;;;11.49;27.70;99505.50;4906321;28;96936;-73
2021/05/05 10:25:59;;;;;;;5.05;2.70;;;;;;;11.57;27.79;99525.00;4906709;28;96914;-74
2021/05/05 10:28:27;;;;;;;2.95;2.70;;;;;;;11.67;27.59;99511.63;4907081;28;97637;-73
2021/05/05 10:30:57;;;;;;;3.78;2.85;;;;;;;11.71;27.49;99507.19;4906608;28;99610;-73
2021/05/05 10:33:26;;;;;;;3.88;3.03;;;;;;;11.79;27.38;99516.06;4907193;28;96696;-73
2021/05/05 10:35:54;;;;;;;3.53;3.25;;;;;;;11.67;27.20;99508.97;4905671;28;96771;-73
2021/05/05 10:38:32;;;;;;;2.95;2.75;;;;;;;11.69;27.25;99531.19;4921486;28;96915;-73
2021/05/05 10:41:06;;;;;;;3.00;2.80;;;;;;;11.69;27.17;99531.19;4905515;28;98119;-72
2021/05/05 10:43:46;;;;;;;3.20;3.00;;;;;;;11.59;26.76;99526.78;4906253;28;97021;-72
2021/05/05 10:46:29;;;;;;;4.35;3.35;;;;;;;11.49;26.95;99522.34;4905289;28;97185;-73
2021/05/05 10:49:05;;;;;;;4.57;3.30;;;;;;;11.50;27.21;99526.81;4920264;28;96774;-72
2021/05/05 10:51:59;;;;;;;4.55;2.83;;;;;;;11.31;27.03;99558.75;4904737;28;96900;-74
2021/05/05 10:54:50;;;;;;;3.50;3.25;;;;;;;11.21;27.21;99547.25;4920751;28;98022;-73
2021/05/05 10:57:19;;;;;;;3.15;2.95;;;;;;;11.12;27.58;99521.50;4906050;28;96880;-72
2021/05/05 11:00:07;;;;;;;3.50;3.30;;;;;;;11.09;27.61;99525.94;4905488;28;97372;-72
2021/05/05 11:02:53;;;;;;;4.88;3.55;;;;;;;10.90;27.77;99559.66;4905442;28;96793;-72
2021/05/05 11:05:22;;;;;;;3.40;3.20;;;;;;;10.97;28.61;99539.28;4906389;28;98268;-74
2021/05/05 11:07:52;;;;;;;4.63;3.05;;;;;;;10.94;28.58;99557.91;4905021;28;96807;-73
2021/05/05 11:10:50;;;;;;;4.10;3.67;;;;;;;10.96;28.24;99562.34;4919747;28;97326;-73
2021/05/05 11:13:40;;;;;;;3.30;2.95;;;;;;;10.96;28.33;99601.38;4902250;28;99158;-72
2021/05/05 11:16:08;;;;;;;2.83;2.78;;;;;;;10.93;28.13;99625.31;4904536;28;98928;-73
2021/05/05 11:18:43;;;;;;;3.50;3.08;;;;;;;10.93;28.19;99586.28;4905677;28;96945;-73
2021/05/05 11:21:40;;;;;;;2.70;2.50;;;;;;;10.96;28.40;99577.41;4906639;28;97227;-72
2021/05/05 11:24:42;;;;;;;2.35;2.35;;;;;;;11.18;27.97;99568.53;4906376;28;97085;-72
2021/05/05 11:27:10;;;;;;;2.63;2.45;;;;;;;11.29;27.78;99588.06;4905361;28;97825;-73
2021/05/05 11:29:40;;;;;;;2.35;2.25;;;;;;;11.41;27.64;99574.78;4903616;28;96937;-72
2021/05/05 11:32:12;;;;;;;2.95;2.72;;;;;;;11.41;27.61;99609.41;4905924;28;96828;-72
2021/05/05 11:34:40;;;;;;;2.60;2.40;;;;;;;11.31;27.84;99573.00;4907120;28;98952;-73
2021/05/05 11:37:19;;;;;;;3.97;2.97;;;;;;;11.21;27.75;99577.41;4905065;28;98887;-72
2021/05/05 11:39:50;;;;;;;4.10;2.50;;;;;;;11.20;28.08;99572.09;4904544;28;97293;-72
2021/05/05 11:42:20;;;;;;;3.00;2.80;;;;;;;11.26;27.99;99577.41;4906535;28;97148;-72
2021/05/05 11:45:10;;;;;;;3.40;3.15;;;;;;;11.37;27.92;99604.97;4918722;28;98576;-74
2021/05/05 11:47:40;;;;;;;3.45;3.15;;;;;;;11.37;27.78;99573.00;4906012;28;97232;-72
2021/05/05 11:50:10;;;;;;;3.28;2.95;;;;;;;11.45;27.73;99575.66;4905586;28;97249;-73
2021/05/05 11:52:39;;;;;;;4.47;3.30;;;;;;;11.48;27.58;99580.97;4905522;28;97720;-73
2021/05/05 11:55:17;;;;;;;3.63;3.33;;;;;;;11.47;26.37;99587.19;4919074;28;97734;-73
2021/05/05 11:57:49;;;;;;;3.53;3.35;;;;;;;11.51;27.14;99596.94;4905156;28;97461;-72